Terminal Aerodrome Forecast
Issued by NWS

Home | Current Version | Previous Version | Text Only | Print | Product List | Glossary On
Versions: 1 2 3 4 5 6 7 8 9 10 11 12 13 14
000
FTUS44 KTSA 041123
TAFFYV
TAF
KFYV 041123Z 0412/0512 35004KT 5SM -RA BKN007 OVC015
      TEMPO 0412/0416 2SM -RA BR OVC003
     FM041600 32004KT 4SM BR OVC007
     FM042000 32006KT P6SM OVC015
     FM050000 VRB03KT P6SM SCT015
     FM050800 00000KT 1SM BR SCT003 SCT250=

USA.gov is the U.S. government's official web portal to all federal, state and local government web resources and services.